createdAt,value
2023-01-12T00:02:33.718Z,100482.03
2023-01-12T00:05:22.168Z,100507.03
2023-01-12T00:08:10.656Z,100501.31
2023-01-12T00:10:59.131Z,100501.50
2023-01-12T00:13:49.117Z,100491.81
2023-01-12T00:16:41.327Z,100499.75
2023-01-12T00:19:29.986Z,100489.50
2023-01-12T00:22:19.223Z,100497.53
2023-01-12T00:25:08.639Z,100491.09
2023-01-12T00:27:57.154Z,100488.22
2023-01-12T00:30:47.061Z,100482.22
2023-01-12T00:33:35.876Z,100479.06
2023-01-12T00:36:24.392Z,100477.59
2023-01-12T00:39:13.116Z,100464.50
2023-01-12T00:42:18.872Z,100478.63
2023-01-12T00:45:25.356Z,100474.72
2023-01-12T00:48:15.609Z,100471.41
2023-01-12T00:51:05.138Z,100480.03
2023-01-12T00:53:53.654Z,100467.19
2023-01-12T00:56:42.110Z,100480.00
2023-01-12T00:59:30.868Z,100475.94
2023-01-12T01:02:19.395Z,100468.44
2023-01-12T01:05:10.135Z,100467.72
2023-01-12T01:07:58.588Z,100467.53
2023-01-12T01:10:47.028Z,100470.75
2023-01-12T01:13:36.473Z,100481.72
2023-01-12T01:16:24.952Z,100475.28
2023-01-12T01:19:13.491Z,100483.31
2023-01-12T01:22:03.312Z,100476.19
2023-01-12T01:24:51.789Z,100463.97
2023-01-12T01:27:40.342Z,100475.81
2023-01-12T01:30:28.771Z,100486.72
2023-01-12T01:33:17.229Z,100435.34
2023-01-12T01:36:06.067Z,100469.38
2023-01-12T01:38:55.958Z,100381.34
2023-01-12T01:41:44.443Z,100479.81
2023-01-12T01:44:54.311Z,100489.97
2023-01-12T01:47:45.934Z,100487.72
2023-01-12T01:50:36.824Z,100481.06
2023-01-12T01:53:27.140Z,100475.63
2023-01-12T01:56:20.609Z,100483.00
2023-01-12T01:59:12.255Z,100473.69
2023-01-12T02:02:00.758Z,100478.38
2023-01-12T02:04:49.410Z,100474.59
2023-01-12T02:07:38.851Z,100477.09
2023-01-12T02:10:27.306Z,100471.53
2023-01-12T02:13:34.608Z,100470.78
2023-01-12T02:16:25.702Z,100456.84
2023-01-12T02:19:35.658Z,100441.00
2023-01-12T02:22:41.047Z,100454.44
2023-01-12T02:26:10.748Z,100442.72
2023-01-12T02:29:32.518Z,100429.69
2023-01-12T02:32:27.996Z,100424.53
2023-01-12T02:35:21.332Z,100435.06
2023-01-12T02:38:15.765Z,100435.06
2023-01-12T02:41:09.471Z,100413.00
2023-01-12T02:43:57.230Z,100417.28
2023-01-12T02:46:49.710Z,100410.94
2023-01-12T02:49:46.029Z,100411.56
2023-01-12T02:52:34.958Z,100419.19
2023-01-12T02:55:24.956Z,100419.59
2023-01-12T02:58:15.743Z,100425.88
2023-01-12T03:01:05.336Z,100433.44
2023-01-12T03:03:55.655Z,100423.44
2023-01-12T03:06:47.268Z,100403.91
2023-01-12T03:09:39.716Z,100431.03
2023-01-12T03:12:30.390Z,100421.91
2023-01-12T03:15:19.392Z,100406.50
2023-01-12T03:18:13.490Z,100392.53
2023-01-12T03:21:04.909Z,100385.53
2023-01-12T03:23:57.727Z,100402.22
2023-01-12T03:26:48.625Z,100407.13
2023-01-12T03:29:39.002Z,100410.38
2023-01-12T03:32:28.034Z,100385.50
2023-01-12T03:35:16.939Z,100373.75
2023-01-12T03:38:08.677Z,100379.97
2023-01-12T03:41:03.659Z,100379.31
2023-01-12T03:43:53.512Z,100405.22
2023-01-12T03:46:45.658Z,100392.78
2023-01-12T03:49:38.033Z,100410.44
2023-01-12T03:52:27.192Z,100415.03
2023-01-12T03:55:18.120Z,100412.81
2023-01-12T03:58:08.081Z,100410.16
2023-01-12T04:00:56.686Z,100404.72
2023-01-12T04:03:45.315Z,100399.72
2023-01-12T04:06:33.778Z,100395.97
2023-01-12T04:09:22.970Z,100401.41
2023-01-12T04:12:11.457Z,100385.53
2023-01-12T04:15:01.389Z,100386.25
2023-01-12T04:17:49.881Z,100383.94
2023-01-12T04:20:38.591Z,100386.25
2023-01-12T04:23:26.072Z,100220.41
2023-01-12T04:26:17.376Z,100358.81
2023-01-12T04:29:05.922Z,100336.19
2023-01-12T04:31:55.950Z,100349.72
2023-01-12T04:34:45.086Z,100347.22
2023-01-12T04:37:33.852Z,100347.88
2023-01-12T04:40:22.366Z,100348.75
2023-01-12T04:43:12.025Z,100322.72
2023-01-12T04:46:05.123Z,100349.50
2023-01-12T04:48:54.995Z,100353.16
2023-01-12T04:51:43.497Z,100354.78
2023-01-12T04:54:31.992Z,100356.59
2023-01-12T04:57:20.465Z,100365.19
2023-01-12T05:00:10.361Z,100354.69
2023-01-12T05:03:02.221Z,100368.38
2023-01-12T05:05:52.130Z,100368.38
2023-01-12T05:08:58.202Z,100368.16
2023-01-12T05:11:46.630Z,100367.00
2023-01-12T05:14:35.254Z,100359.44
2023-01-12T05:17:23.734Z,100346.81
2023-01-12T05:20:12.981Z,100353.72
2023-01-12T05:23:02.929Z,100356.91
2023-01-12T05:25:51.439Z,100348.22
2023-01-12T05:28:39.861Z,100360.56
2023-01-12T05:31:28.370Z,100342.88
2023-01-12T05:34:19.279Z,100326.09
2023-01-12T05:37:07.738Z,100310.66
2023-01-12T05:39:57.564Z,100286.16
2023-01-12T05:43:03.843Z,100297.94
2023-01-12T05:45:52.439Z,100298.97
2023-01-12T05:48:40.979Z,100264.31
2023-01-12T05:51:30.856Z,100289.63
2023-01-12T05:54:19.334Z,100274.25
2023-01-12T05:57:09.177Z,100278.91
2023-01-12T05:59:58.010Z,100227.22
2023-01-12T06:02:46.906Z,100271.63
2023-01-12T06:05:35.388Z,100271.81
2023-01-12T06:08:23.869Z,100268.53
2023-01-12T06:11:32.548Z,100261.38
2023-01-12T06:14:21.405Z,100251.53
2023-01-12T06:17:09.865Z,100248.47
2023-01-12T06:19:58.589Z,100242.34
2023-01-12T06:22:47.069Z,100243.78
2023-01-12T06:25:35.648Z,100233.72
2023-01-12T06:28:24.241Z,100246.75
2023-01-12T06:31:15.112Z,100242.44
2023-01-12T06:34:03.624Z,100240.59
2023-01-12T06:36:52.163Z,100255.63
2023-01-12T06:39:40.588Z,100263.16
2023-01-12T06:42:32.934Z,100257.63
2023-01-12T06:45:21.440Z,100242.50
2023-01-12T06:48:11.361Z,100243.84
2023-01-12T06:51:01.817Z,100267.75
2023-01-12T06:53:50.289Z,100260.38
2023-01-12T06:56:38.775Z,100199.97
2023-01-12T06:59:27.232Z,100233.09
2023-01-12T07:02:17.106Z,100248.66
2023-01-12T07:05:07.428Z,100233.59
2023-01-12T07:08:00.192Z,100238.75
2023-01-12T07:10:48.656Z,100216.50
2023-01-12T07:13:37.206Z,100229.50
2023-01-12T07:16:25.794Z,100202.22
2023-01-12T07:19:14.580Z,100237.91
2023-01-12T07:22:04.436Z,100242.47
2023-01-12T07:24:52.935Z,100227.44
2023-01-12T07:27:46.391Z,100223.56
2023-01-12T07:30:34.877Z,100220.03
2023-01-12T07:33:23.370Z,100214.47
2023-01-12T07:36:11.901Z,100211.63
2023-01-12T07:39:01.734Z,100201.28
2023-01-12T07:42:07.716Z,100210.34
2023-01-12T07:44:56.317Z,100240.03
2023-01-12T07:47:44.818Z,100235.06
2023-01-12T07:50:33.562Z,100233.78
2023-01-12T07:53:22.190Z,100214.13
2023-01-12T08:08:35.624Z,100248.81
2023-01-12T08:11:25.592Z,100245.94
2023-01-12T08:14:24.523Z,100224.47
2023-01-12T08:17:17.614Z,100214.91
2023-01-12T08:20:11.250Z,100247.59
2023-01-12T08:23:01.992Z,100229.00
2023-01-12T08:25:56.739Z,100251.91
2023-01-12T08:28:47.444Z,100204.09
2023-01-12T08:31:36.962Z,100244.41
2023-01-12T08:34:25.446Z,100222.94
2023-01-12T08:37:17.203Z,100228.97
2023-01-12T08:40:08.589Z,100226.25
2023-01-12T08:42:58.437Z,100229.41
2023-01-12T08:45:46.962Z,100229.81
2023-01-12T08:48:36.069Z,100229.88
2023-01-12T08:51:24.624Z,100244.47
2023-01-12T08:54:15.227Z,100239.53
2023-01-12T08:57:05.022Z,100245.09
2023-01-12T08:59:54.934Z,100241.19
2023-01-12T09:02:43.433Z,100234.63
2023-01-12T09:05:31.890Z,100266.41
2023-01-12T09:08:20.455Z,100225.50
2023-01-12T09:11:09.948Z,100238.94
2023-01-12T09:13:58.918Z,100242.66
2023-01-12T09:16:49.505Z,100250.53
2023-01-12T09:19:38.022Z,100259.59
2023-01-12T09:22:26.470Z,100253.00
2023-01-12T09:25:15.337Z,100259.22
2023-01-12T09:28:03.868Z,100259.81
2023-01-12T09:30:52.428Z,100268.50
2023-01-12T09:33:42.999Z,100263.38
2023-01-12T09:36:33.425Z,100260.69
2023-01-12T09:39:27.681Z,100256.13
2023-01-12T09:42:37.293Z,100248.28
2023-01-12T09:45:43.642Z,100247.88
2023-01-12T09:48:32.256Z,100242.72
2023-01-12T09:51:26.919Z,100232.03
2023-01-12T09:54:15.422Z,100239.88
2023-01-12T09:57:20.620Z,100238.69
2023-01-12T10:00:18.698Z,100229.59
2023-01-12T10:03:13.785Z,100242.41
2023-01-12T10:06:03.062Z,100207.25
2023-01-12T10:08:55.291Z,100227.94
2023-01-12T10:11:49.016Z,100222.97
2023-01-12T10:14:56.959Z,100216.41
2023-01-12T10:17:52.032Z,100226.34
2023-01-12T10:20:43.367Z,100223.66
2023-01-12T10:23:31.953Z,100225.69
2023-01-12T10:26:24.424Z,100233.97
2023-01-12T10:29:13.370Z,100231.47
2023-01-12T10:32:01.941Z,100231.72
2023-01-12T10:34:51.618Z,100222.84
2023-01-12T10:37:45.188Z,100216.44
2023-01-12T10:40:35.095Z,100205.69
2023-01-12T10:43:31.888Z,100214.81
2023-01-12T10:46:23.492Z,100210.88
2023-01-12T10:49:19.744Z,100187.13
2023-01-12T10:52:11.251Z,100211.50
2023-01-12T10:54:59.777Z,100169.38
2023-01-12T10:57:49.722Z,100173.88
2023-01-12T11:00:39.620Z,100180.25
2023-01-12T11:03:37.245Z,100190.41
2023-01-12T11:06:28.394Z,100192.38
2023-01-12T11:09:23.969Z,100219.47
2023-01-12T11:12:23.558Z,100187.63
2023-01-12T11:15:17.969Z,100220.41
2023-01-12T11:18:29.551Z,100185.47
2023-01-12T11:21:19.799Z,100199.44
2023-01-12T11:24:14.195Z,100195.50
2023-01-12T11:27:04.278Z,100185.13
2023-01-12T11:29:57.506Z,100203.00
2023-01-12T11:32:50.873Z,100207.81
2023-01-12T11:35:45.144Z,100165.69
2023-01-12T11:38:37.152Z,100195.38
2023-01-12T11:41:29.496Z,100176.59
2023-01-12T11:44:21.203Z,100196.84
2023-01-12T11:47:12.640Z,100202.03
2023-01-12T11:50:04.773Z,100195.69
2023-01-12T11:52:55.855Z,100165.13
2023-01-12T11:55:56.414Z,100170.53
2023-01-12T11:58:51.594Z,100163.06
2023-01-12T12:01:47.068Z,100168.41
2023-01-12T12:04:46.990Z,100149.78
2023-01-12T12:07:45.244Z,100154.09
2023-01-12T12:10:38.551Z,100118.63
2023-01-12T12:13:34.176Z,100144.81
2023-01-12T12:16:30.048Z,100044.59
2023-01-12T12:19:25.836Z,100131.06
2023-01-12T12:22:24.283Z,100133.34
2023-01-12T12:25:21.546Z,100119.69
2023-01-12T12:28:38.648Z,100103.13
2023-01-12T12:31:40.938Z,100107.41
2023-01-12T12:35:05.476Z,100109.09
2023-01-12T12:38:01.437Z,100106.84
2023-01-12T12:41:20.504Z,100106.03
2023-01-12T12:44:40.932Z,100111.19
2023-01-12T12:47:47.580Z,100104.72
2023-01-12T12:50:39.696Z,100076.00
2023-01-12T12:53:30.625Z,100105.47
2023-01-12T12:56:20.597Z,99964.38
2023-01-12T12:59:53.049Z,100084.56
2023-01-12T13:02:54.686Z,100089.97
2023-01-12T13:05:45.036Z,100094.09
2023-01-12T13:08:35.577Z,100074.44
2023-01-12T13:11:50.335Z,100082.75
2023-01-12T13:14:41.831Z,100080.22
2023-01-12T13:17:44.600Z,100081.09
2023-01-12T13:20:39.484Z,100082.06
2023-01-12T13:23:52.130Z,100080.13
2023-01-12T13:26:43.182Z,100060.09
2023-01-12T13:29:47.833Z,100050.84
2023-01-12T13:32:56.480Z,100088.75
2023-01-12T13:36:01.186Z,100076.81
2023-01-12T13:39:06.853Z,100092.28
2023-01-12T13:42:12.644Z,100066.53
2023-01-12T13:45:03.321Z,100076.97
2023-01-12T13:47:53.081Z,100095.38
2023-01-12T13:50:48.162Z,100059.91
2023-01-12T13:53:36.666Z,100090.63
2023-01-12T13:56:25.131Z,100075.13
2023-01-12T13:59:18.151Z,99944.44
2023-01-12T14:02:18.121Z,100078.03
2023-01-12T14:05:18.185Z,100065.22
2023-01-12T14:08:20.221Z,100070.44
2023-01-12T14:11:20.487Z,100057.09
2023-01-12T14:14:40.809Z,100073.16
2023-01-12T14:17:50.192Z,100043.09
2023-01-12T14:20:44.395Z,100060.16
2023-01-12T14:23:34.182Z,100056.63
2023-01-12T14:26:26.997Z,100050.44
2023-01-12T14:29:15.823Z,100042.19
2023-01-12T14:32:04.445Z,100057.44
2023-01-12T14:34:54.364Z,100075.41
2023-01-12T14:37:42.961Z,100062.81
2023-01-12T14:40:33.089Z,100072.09
2023-01-12T14:43:39.497Z,100065.94
2023-01-12T14:46:38.314Z,100031.06
2023-01-12T14:49:28.718Z,100063.66
2023-01-12T14:52:27.449Z,100066.31
2023-01-12T14:55:17.851Z,100048.63
2023-01-12T14:58:07.155Z,100039.34
2023-01-12T15:00:55.671Z,100079.59
2023-01-12T15:03:48.336Z,100083.34
2023-01-12T15:06:39.977Z,100062.47
2023-01-12T15:09:32.200Z,100067.84
2023-01-12T15:12:42.902Z,100073.81
2023-01-12T15:15:52.996Z,100083.56
2023-01-12T15:18:59.313Z,100070.38
2023-01-12T15:22:05.202Z,100079.22
2023-01-12T15:25:14.024Z,100060.06
2023-01-12T15:28:03.105Z,99940.06
2023-01-12T15:30:52.900Z,100064.81
2023-01-12T15:33:41.492Z,100063.16
2023-01-12T15:36:30.041Z,100065.59
2023-01-12T15:39:18.605Z,100065.03
2023-01-12T15:42:17.945Z,100059.44
2023-01-12T15:45:17.963Z,100069.34
2023-01-12T15:48:07.396Z,100049.13
2023-01-12T15:50:55.806Z,100055.28
2023-01-12T15:53:44.283Z,100066.25
2023-01-12T15:56:34.937Z,100043.38
2023-01-12T15:59:24.798Z,100066.66
2023-01-12T16:02:25.041Z,100064.41
2023-01-12T16:05:13.966Z,100062.53
2023-01-12T16:08:02.557Z,100082.97
2023-01-12T16:11:05.004Z,100040.84
2023-01-12T16:13:54.160Z,100062.75
2023-01-12T16:16:44.081Z,100066.66
2023-01-12T16:19:33.718Z,100070.38
2023-01-12T16:22:25.233Z,100055.91
2023-01-12T16:25:14.607Z,100061.91
2023-01-12T16:28:03.114Z,100060.91
2023-01-12T16:30:52.808Z,100040.41
2023-01-12T16:33:43.843Z,100063.75
2023-01-12T16:36:32.329Z,100070.59
2023-01-12T16:39:20.812Z,100042.94
2023-01-12T16:42:09.693Z,100067.91
2023-01-12T16:44:59.036Z,100058.59
2023-01-12T16:47:47.828Z,100068.13
2023-01-12T16:50:41.387Z,100025.63
2023-01-12T16:53:29.913Z,100052.63
2023-01-12T16:56:18.367Z,100043.78
2023-01-12T16:59:07.939Z,100020.47
2023-01-12T17:01:56.602Z,100028.69
2023-01-12T17:04:45.774Z,100029.31
2023-01-12T17:07:35.865Z,100026.00
2023-01-12T17:10:24.474Z,100020.41
2023-01-12T17:13:13.052Z,100020.78
2023-01-12T17:16:01.813Z,100017.72
2023-01-12T17:18:51.018Z,100018.53
2023-01-12T17:21:39.760Z,100028.03
2023-01-12T17:24:30.227Z,100012.31
2023-01-12T17:27:20.044Z,100023.47
2023-01-12T17:30:09.752Z,100007.56
2023-01-12T17:32:58.313Z,100006.13
2023-01-12T17:35:46.742Z,100002.63
2023-01-12T17:38:36.823Z,100008.19
2023-01-12T17:41:44.061Z,100005.50
2023-01-12T17:44:32.519Z,100009.25
2023-01-12T17:47:21.314Z,99994.41
2023-01-12T17:50:11.327Z,100024.75
2023-01-12T17:53:00.408Z,99942.72
2023-01-12T17:55:50.400Z,99998.72
2023-01-12T17:58:41.834Z,100016.25
2023-01-12T18:01:32.335Z,99997.69
2023-01-12T18:04:21.574Z,99989.03
2023-01-12T18:07:10.128Z,99996.66
2023-01-12T18:09:58.631Z,99991.72
2023-01-12T18:12:47.188Z,100000.56
2023-01-12T18:15:37.044Z,99983.47
2023-01-12T18:18:25.947Z,99970.81
2023-01-12T18:21:15.875Z,99983.03
2023-01-12T18:24:04.479Z,99970.66
2023-01-12T18:26:52.994Z,99976.03
2023-01-12T18:29:42.149Z,99974.59
2023-01-12T18:32:31.982Z,99977.72
2023-01-12T18:35:20.487Z,99974.19
2023-01-12T18:38:09.012Z,99959.72
2023-01-12T18:41:29.781Z,99961.81
2023-01-12T18:44:18.305Z,99973.78
2023-01-12T18:47:24.313Z,99982.88
2023-01-12T18:50:31.813Z,99978.50
2023-01-12T18:53:25.022Z,99951.50
2023-01-12T18:56:13.965Z,99963.66
2023-01-12T18:59:04.186Z,99953.28
2023-01-12T19:01:52.746Z,99844.75
2023-01-12T19:05:02.392Z,99959.09
2023-01-12T19:08:15.534Z,99935.56
2023-01-12T19:11:11.138Z,99961.19
2023-01-12T19:14:17.109Z,99969.19
2023-01-12T19:17:23.193Z,99972.28
2023-01-12T19:20:14.922Z,99979.34
2023-01-12T19:23:22.011Z,99951.91
2023-01-12T19:26:28.560Z,99986.13
2023-01-12T19:29:17.027Z,99963.81
2023-01-12T19:32:05.767Z,99970.63
2023-01-12T19:35:02.288Z,99973.09
2023-01-12T19:37:54.644Z,99975.97
2023-01-12T19:40:48.429Z,99968.34
2023-01-12T19:43:37.740Z,99968.53
2023-01-12T19:46:26.285Z,99964.00
2023-01-12T19:49:16.846Z,99985.50
2023-01-12T19:52:05.445Z,99974.53
2023-01-12T19:54:53.899Z,99963.81
2023-01-12T19:57:44.108Z,99964.59
2023-01-12T20:00:32.554Z,99969.53
2023-01-12T20:03:22.477Z,99973.28
2023-01-12T20:06:10.928Z,99953.47
2023-01-12T20:08:59.387Z,99952.63
2023-01-12T20:11:52.613Z,99951.78
2023-01-12T20:14:42.585Z,99922.75
2023-01-12T20:17:31.162Z,99959.63
2023-01-12T20:20:19.992Z,99942.53
2023-01-12T20:23:08.455Z,99949.94
2023-01-12T20:25:56.919Z,99945.34
2023-01-12T20:28:45.395Z,99929.88
2023-01-12T20:31:35.852Z,99936.31
2023-01-12T20:34:24.522Z,99881.91
2023-01-12T20:37:13.664Z,99916.91
2023-01-12T20:40:02.957Z,99939.00
2023-01-12T20:42:51.467Z,99926.59
2023-01-12T20:45:41.425Z,99936.50
2023-01-12T20:48:31.304Z,99929.88
2023-01-12T20:51:19.729Z,99934.66
2023-01-12T20:54:08.352Z,99921.41
2023-01-12T20:56:58.659Z,99905.28
2023-01-12T20:59:48.492Z,99907.97
2023-01-12T21:02:37.145Z,99911.06
2023-01-12T21:05:27.022Z,99908.00
2023-01-12T21:08:16.469Z,99904.66
2023-01-12T21:11:05.181Z,99902.59
2023-01-12T21:13:53.706Z,99901.16
2023-01-12T21:16:42.272Z,99899.50
2023-01-12T21:19:30.932Z,99893.31
2023-01-12T21:22:21.055Z,99892.66
2023-01-12T21:25:12.657Z,99885.66
2023-01-12T21:28:01.185Z,99878.56
2023-01-12T21:30:50.031Z,99883.34
2023-01-12T21:33:38.519Z,99874.91
2023-01-12T21:36:27.088Z,99882.09
2023-01-12T21:39:17.160Z,99879.66
2023-01-12T21:42:28.651Z,99864.75
2023-01-12T21:45:17.100Z,99878.53
2023-01-12T21:48:06.074Z,99874.09
2023-01-12T21:50:54.492Z,99873.16
2023-01-12T21:53:43.374Z,99794.38
2023-01-12T21:56:33.216Z,99882.44
2023-01-12T21:59:21.702Z,99866.09
2023-01-12T22:02:11.628Z,99881.00
2023-01-12T22:05:00.327Z,99853.03
2023-01-12T22:07:49.444Z,99869.00
2023-01-12T22:10:37.937Z,99871.25
2023-01-12T22:13:27.769Z,99861.31
2023-01-12T22:16:17.164Z,99861.72
2023-01-12T22:19:05.723Z,99849.03
2023-01-12T22:21:54.143Z,99848.44
2023-01-12T22:24:42.668Z,99839.78
2023-01-12T22:27:32.093Z,99833.34
2023-01-12T22:30:24.061Z,99848.44
2023-01-12T22:33:15.811Z,99844.88
2023-01-12T22:36:05.250Z,99834.41
2023-01-12T22:38:53.723Z,99855.41
2023-01-12T22:41:42.276Z,99840.97
2023-01-12T22:44:30.750Z,99832.75
2023-01-12T22:47:20.604Z,99843.41
2023-01-12T22:50:10.543Z,99876.84
2023-01-12T22:52:59.041Z,99876.84
2023-01-12T22:55:47.584Z,99866.16
2023-01-12T22:58:36.139Z,99866.94
2023-01-12T23:01:28.185Z,99835.91
2023-01-12T23:04:18.117Z,99839.06
2023-01-12T23:07:06.588Z,99852.50
2023-01-12T23:09:55.073Z,99839.06
2023-01-12T23:13:04.328Z,99835.78
2023-01-12T23:15:56.492Z,99835.38
2023-01-12T23:18:46.535Z,99820.41
2023-01-12T23:21:36.946Z,99685.44
2023-01-12T23:24:25.408Z,99826.94
2023-01-12T23:27:13.831Z,99818.72
2023-01-12T23:30:02.317Z,99813.06
2023-01-12T23:32:50.751Z,99810.75
2023-01-12T23:35:40.640Z,99782.41
2023-01-12T23:38:30.428Z,99792.72
2023-01-12T23:41:20.785Z,99803.19
2023-01-12T23:44:11.249Z,99795.03
2023-01-12T23:47:03.741Z,99802.16
2023-01-12T23:49:52.204Z,99802.97
2023-01-12T23:52:40.792Z,99809.38
2023-01-12T23:55:30.674Z,99804.84
2023-01-12T23:58:19.190Z,99798.47
